Time;durP1;ratioP1;P1;durP2;ratioP2;P2;SDS_P1;SDS_P2;PMS_P1;PMS_P2;Temp;Humidity;BMP_temperature;BMP_pressure;BME280_temperature;BME280_humidity;BME280_pressure;Samples;Min_cycle;Max_cycle;Signal;HPM_P1;HPM_P2
2024/03/15 00:00:00;;;;;;;17.95;8.95;;;;;;;;;;6306950;28;20051;-78
2024/03/15 00:03:02;;;;;;;12.77;8.82;;;;;;;;;;6319246;27;20052;-80
2024/03/15 00:06:05;;;;;;;11.43;7.73;;;;;;;;;;6265682;28;20048;-82
2024/03/15 00:09:09;;;;;;;16.00;8.35;;;;;;;;;;6271252;28;20056;-82
2024/03/15 00:12:11;;;;;;;13.32;8.02;;;;;;;;;;6294358;28;20048;-81
2024/03/15 00:15:13;;;;;;;11.68;7.75;;;;;;;;;;6278989;28;20059;-82
2024/03/15 00:18:17;;;;;;;10.73;7.23;;;;;;;;;;6299876;28;20062;-79
2024/03/15 00:21:20;;;;;;;12.30;7.25;;;;;;;;;;6280300;27;20047;-78
2024/03/15 00:24:22;;;;;;;12.52;7.68;;;;;;;;;;6294765;27;20044;-79
2024/03/15 00:27:25;;;;;;;12.25;7.57;;;;;;;;;;6287219;28;20639;-81
2024/03/15 00:30:27;;;;;;;13.68;8.50;;;;;;;;;;6298461;28;20040;-81
2024/03/15 00:33:29;;;;;;;15.97;8.33;;;;;;;;;;6294565;28;20044;-81
2024/03/15 00:36:32;;;;;;;11.33;7.33;;;;;;;;;;6302437;28;20044;-79
2024/03/15 00:39:35;;;;;;;17.55;8.40;;;;;;;;;;6301171;28;20055;-79
2024/03/15 00:42:37;;;;;;;12.48;7.70;;;;;;;;;;6257353;28;20041;-81
2024/03/15 00:45:39;;;;;;;14.50;7.78;;;;;;;;;;6278946;28;20131;-81
2024/03/15 00:48:41;;;;;;;17.95;8.80;;;;;;;;;;6279508;28;20515;-81
2024/03/15 00:51:43;;;;;;;17.52;8.73;;;;;;;;;;6299199;28;20048;-80
2024/03/15 00:54:47;;;;;;;16.40;8.57;;;;;;;;;;6298007;28;20116;-79
2024/03/15 00:57:49;;;;;;;15.43;8.90;;;;;;;;;;6304132;28;20051;-81
2024/03/15 01:00:51;;;;;;;12.93;7.13;;;;;;;;;;6293566;28;20044;-82
2024/03/15 01:03:54;;;;;;;10.88;6.35;;;;;;;;;;6301887;28;20055;-81
2024/03/15 01:06:58;;;;;;;14.02;7.13;;;;;;;;;;6285738;27;20059;-80
2024/03/15 01:10:00;;;;;;;16.70;8.20;;;;;;;;;;6295076;28;20537;-78
2024/03/15 01:13:03;;;;;;;12.45;7.65;;;;;;;;;;6283325;28;20047;-79
2024/03/15 01:16:05;;;;;;;12.85;7.28;;;;;;;;;;6300682;28;20405;-82
2024/03/15 01:19:08;;;;;;;12.47;7.23;;;;;;;;;;6295742;28;20052;-82
2024/03/15 01:22:10;;;;;;;12.93;7.20;;;;;;;;;;6282827;28;20043;-82
2024/03/15 01:25:12;;;;;;;13.55;7.40;;;;;;;;;;6284579;28;20494;-82
2024/03/15 01:28:14;;;;;;;13.82;8.00;;;;;;;;;;6286115;28;20044;-81
2024/03/15 01:31:17;;;;;;;13.73;7.50;;;;;;;;;;6290717;28;20041;-80
2024/03/15 01:34:19;;;;;;;13.40;6.82;;;;;;;;;;6298315;28;20524;-80
2024/03/15 01:37:21;;;;;;;15.40;7.47;;;;;;;;;;6295774;28;20045;-80
2024/03/15 01:40:24;;;;;;;14.50;7.40;;;;;;;;;;6298996;27;20045;-82
2024/03/15 01:43:26;;;;;;;14.45;7.85;;;;;;;;;;6257894;28;20041;-81
2024/03/15 01:46:29;;;;;;;14.93;7.35;;;;;;;;;;6259533;28;20055;-79
2024/03/15 01:49:31;;;;;;;12.85;7.57;;;;;;;;;;6287223;28;20059;-81
2024/03/15 01:52:36;;;;;;;12.60;7.45;;;;;;;;;;6279666;28;20370;-80
2024/03/15 01:55:38;;;;;;;12.82;7.20;;;;;;;;;;6252456;28;20045;-79
2024/03/15 01:58:43;;;;;;;12.93;6.82;;;;;;;;;;6267822;28;20044;-79
2024/03/15 02:01:47;;;;;;;12.85;7.20;;;;;;;;;;6262280;28;20047;-81
2024/03/15 02:04:55;;;;;;;12.57;7.68;;;;;;;;;;6289034;28;20047;-81
2024/03/15 02:07:58;;;;;;;12.63;7.35;;;;;;;;;;6264954;28;20048;-81
2024/03/15 02:11:00;;;;;;;13.63;7.20;;;;;;;;;;6323144;27;20032;-78
2024/03/15 02:14:03;;;;;;;11.57;6.83;;;;;;;;;;6299578;28;20040;-78
2024/03/15 02:17:06;;;;;;;12.05;6.93;;;;;;;;;;6285572;28;20857;-81
2024/03/15 02:20:12;;;;;;;13.88;7.32;;;;;;;;;;6267448;28;20043;-81
2024/03/15 02:23:15;;;;;;;10.63;6.75;;;;;;;;;;6298356;28;20070;-81
2024/03/15 02:26:17;;;;;;;12.07;6.90;;;;;;;;;;6282437;28;20060;-81
2024/03/15 02:29:19;;;;;;;12.85;7.32;;;;;;;;;;6297182;28;20044;-79
2024/03/15 02:32:25;;;;;;;14.18;6.63;;;;;;;;;;6296668;28;20044;-81
2024/03/15 02:35:27;;;;;;;12.87;6.70;;;;;;;;;;6282117;28;20039;-81
2024/03/15 02:38:34;;;;;;;12.90;7.35;;;;;;;;;;6302617;28;20627;-80
2024/03/15 02:41:36;;;;;;;12.20;6.83;;;;;;;;;;6297075;28;20048;-80
2024/03/15 02:44:39;;;;;;;11.30;7.10;;;;;;;;;;6310900;27;20098;-80
2024/03/15 02:47:41;;;;;;;14.13;7.70;;;;;;;;;;6287024;28;20048;-81
2024/03/15 02:50:44;;;;;;;13.25;7.32;;;;;;;;;;6296098;28;20082;-82
2024/03/15 02:53:46;;;;;;;17.70;7.75;;;;;;;;;;6305138;28;20052;-78
2024/03/15 02:56:48;;;;;;;14.63;7.10;;;;;;;;;;6294374;28;20040;-79
2024/03/15 02:59:50;;;;;;;13.15;8.05;;;;;;;;;;6288705;28;20134;-82
2024/03/15 03:02:53;;;;;;;12.23;7.47;;;;;;;;;;6288877;28;20040;-79
2024/03/15 03:05:57;;;;;;;14.63;7.70;;;;;;;;;;6282544;28;20489;-80
2024/03/15 03:09:00;;;;;;;15.38;8.25;;;;;;;;;;6291473;28;20055;-82
2024/03/15 03:12:02;;;;;;;14.73;7.35;;;;;;;;;;6269521;27;20086;-79
2024/03/15 03:15:04;;;;;;;15.23;8.70;;;;;;;;;;6280431;28;20635;-80
2024/03/15 03:18:06;;;;;;;14.30;7.03;;;;;;;;;;6279783;28;20048;-81
2024/03/15 03:21:08;;;;;;;11.50;7.53;;;;;;;;;;6276545;28;20980;-82
2024/03/15 03:24:11;;;;;;;11.97;6.87;;;;;;;;;;6265996;28;20546;-82
2024/03/15 03:27:14;;;;;;;;;;;;;;;;;;6250396;28;20063;-80
2024/03/15 03:30:17;;;;;;;14.45;6.60;;;;;;;;;;6288195;28;19919;-80
2024/03/15 03:33:22;;;;;;;11.70;6.70;;;;;;;;;;6295895;28;20055;-82
2024/03/15 03:36:26;;;;;;;12.20;6.57;;;;;;;;;;6306375;28;20052;-81
2024/03/15 03:39:30;;;;;;;15.13;7.40;;;;;;;;;;6262292;28;20041;-81
2024/03/15 03:42:33;;;;;;;15.02;7.75;;;;;;;;;;6269948;28;20442;-80
2024/03/15 03:45:36;;;;;;;10.45;6.60;;;;;;;;;;6267649;28;20037;-80
2024/03/15 03:48:42;;;;;;;16.15;7.63;;;;;;;;;;6290188;27;20043;-81
2024/03/15 03:51:44;;;;;;;11.45;6.65;;;;;;;;;;6281322;28;20123;-81
2024/03/15 03:54:47;;;;;;;12.40;7.35;;;;;;;;;;6281357;28;20047;-79
2024/03/15 03:57:55;;;;;;;12.60;6.80;;;;;;;;;;6280761;28;20051;-82
2024/03/15 04:00:58;;;;;;;14.13;7.38;;;;;;;;;;6277798;28;20047;-80
2024/03/15 04:04:01;;;;;;;13.02;7.45;;;;;;;;;;6278004;28;20055;-79
2024/03/15 04:07:04;;;;;;;13.02;7.03;;;;;;;;;;6277029;28;20083;-78
2024/03/15 04:10:07;;;;;;;14.15;7.28;;;;;;;;;;6290780;28;20549;-79
2024/03/15 04:13:09;;;;;;;;;;;;;;;;;;6299460;28;20146;-80
2024/03/15 04:16:11;;;;;;;12.73;6.40;;;;;;;;;;6294229;28;20353;-81
2024/03/15 04:19:13;;;;;;;14.00;7.53;;;;;;;;;;6282039;28;20117;-79
2024/03/15 04:22:16;;;;;;;12.70;7.20;;;;;;;;;;6298303;27;20044;-77
2024/03/15 04:25:19;;;;;;;13.00;7.63;;;;;;;;;;6311127;28;20039;-77
2024/03/15 04:28:24;;;;;;;13.20;7.22;;;;;;;;;;6299888;28;20051;-82
2024/03/15 04:31:30;;;;;;;13.50;7.30;;;;;;;;;;6301254;28;20045;-80
2024/03/15 04:34:33;;;;;;;12.00;6.95;;;;;;;;;;6286823;28;20049;-81
2024/03/15 04:37:35;;;;;;;11.68;7.22;;;;;;;;;;6296316;28;20043;-78
2024/03/15 04:40:37;;;;;;;10.77;7.40;;;;;;;;;;6281602;28;20044;-78
2024/03/15 04:43:40;;;;;;;10.50;7.00;;;;;;;;;;6278267;28;20446;-81
2024/03/15 04:46:42;;;;;;;13.15;7.90;;;;;;;;;;6285629;28;20043;-81
2024/03/15 04:49:44;;;;;;;13.00;7.63;;;;;;;;;;6288561;28;20162;-81
2024/03/15 04:52:47;;;;;;;13.95;6.95;;;;;;;;;;6282661;27;20467;-80
2024/03/15 04:55:50;;;;;;;9.77;6.68;;;;;;;;;;6313289;27;20036;-81
2024/03/15 04:58:52;;;;;;;13.13;6.82;;;;;;;;;;6306237;28;20536;-79
2024/03/15 05:01:53;;;;;;;11.55;6.75;;;;;;;;;;6309490;28;20119;-81
2024/03/15 05:04:55;;;;;;;10.20;5.90;;;;;;;;;;6288479;28;20462;-79
2024/03/15 05:07:57;;;;;;;12.05;6.72;;;;;;;;;;6256745;28;20059;-81
2024/03/15 05:11:00;;;;;;;11.35;7.03;;;;;;;;;;6272032;28;20049;-81
2024/03/15 05:14:02;;;;;;;13.65;7.50;;;;;;;;;;6282552;28;20057;-81
2024/03/15 05:17:04;;;;;;;10.27;6.80;;;;;;;;;;6287902;28;20052;-81
2024/03/15 05:20:09;;;;;;;10.90;7.28;;;;;;;;;;6289942;28;20445;-81
2024/03/15 05:23:12;;;;;;;10.75;6.70;;;;;;;;;;6317588;27;20040;-82
2024/03/15 05:26:14;;;;;;;11.45;6.70;;;;;;;;;;6311227;28;20063;-82
2024/03/15 05:29:16;;;;;;;13.77;7.22;;;;;;;;;;6298543;28;20048;-82
2024/03/15 05:32:17;;;;;;;11.50;6.63;;;;;;;;;;6307131;28;20059;-79
2024/03/15 05:35:20;;;;;;;14.90;7.35;;;;;;;;;;6307948;28;20056;-79
2024/03/15 05:38:25;;;;;;;14.02;6.72;;;;;;;;;;6300222;28;20193;-81
2024/03/15 05:41:28;;;;;;;14.50;7.07;;;;;;;;;;6303644;28;20167;-83
2024/03/15 05:44:29;;;;;;;17.48;8.90;;;;;;;;;;6289777;28;20040;-82
2024/03/15 05:47:32;;;;;;;12.27;7.45;;;;;;;;;;6282826;28;20041;-82
2024/03/15 05:50:34;;;;;;;12.70;7.32;;;;;;;;;;6268758;28;20067;-82
2024/03/15 05:53:36;;;;;;;10.98;6.45;;;;;;;;;;6277005;28;20055;-82
2024/03/15 05:56:37;;;;;;;14.50;7.70;;;;;;;;;;6279542;28;20055;-83
2024/03/15 05:59:39;;;;;;;15.43;7.55;;;;;;;;;;6306793;28;20044;-84
2024/03/15 06:02:40;;;;;;;21.58;9.88;;;;;;;;;;6293309;27;20710;-82
2024/03/15 06:05:42;;;;;;;21.15;11.35;;;;;;;;;;6307856;28;20667;-84
2024/03/15 06:08:44;;;;;;;16.15;9.30;;;;;;;;;;6308359;28;20413;-83
2024/03/15 06:11:48;;;;;;;15.43;8.48;;;;;;;;;;6290525;28;20070;-83
2024/03/15 06:14:50;;;;;;;14.05;7.68;;;;;;;;;;6307088;28;20597;-82
2024/03/15 06:17:52;;;;;;;20.52;8.98;;;;;;;;;;6309459;27;20059;-84
2024/03/15 06:20:54;;;;;;;17.73;8.98;;;;;;;;;;6303765;28;20422;-81
2024/03/15 06:23:56;;;;;;;14.90;7.93;;;;;;;;;;6303668;28;20051;-83
2024/03/15 06:26:59;;;;;;;18.92;8.30;;;;;;;;;;6293851;28;20043;-84
2024/03/15 06:30:03;;;;;;;15.93;7.65;;;;;;;;;;6295809;28;20040;-83
2024/03/15 06:33:05;;;;;;;18.23;8.93;;;;;;;;;;6316117;28;20043;-82
2024/03/15 06:36:07;;;;;;;20.83;8.13;;;;;;;;;;6347281;28;20028;-80
2024/03/15 06:39:22;;;;;;;15.20;7.63;;;;;;;;;;6328386;27;20044;-81
2024/03/15 06:42:34;;;;;;;16.15;7.40;;;;;;;;;;6304002;28;20039;-80
2024/03/15 06:46:07;;;;;;;14.48;7.75;;;;;;;;;;6344944;27;20036;-80
2024/03/15 06:48:59;;;;;;;15.80;8.07;;;;;;;;;;6341756;27;20027;-80
2024/03/15 06:55:26;;;;;;;15.75;7.07;;;;;;;;;;6327988;27;20052;-80
2024/03/15 06:58:28;;;;;;;11.77;6.25;;;;;;;;;;6296745;28;20048;-80
2024/03/15 07:01:30;;;;;;;12.27;6.85;;;;;;;;;;6305519;28;20048;-81
2024/03/15 07:04:32;;;;;;;19.03;6.80;;;;;;;;;;6303856;28;20044;-83
2024/03/15 07:07:37;;;;;;;10.82;6.68;;;;;;;;;;6328861;28;20057;-81
2024/03/15 07:10:39;;;;;;;11.45;6.03;;;;;;;;;;6337288;27;20044;-81
2024/03/15 07:13:41;;;;;;;12.20;6.30;;;;;;;;;;6309616;28;20040;-81
2024/03/15 07:16:42;;;;;;;10.98;6.20;;;;;;;;;;6322684;28;20406;-80
2024/03/15 07:19:44;;;;;;;14.02;6.38;;;;;;;;;;6308344;28;20044;-81
2024/03/15 07:22:47;;;;;;;13.23;6.85;;;;;;;;;;6309616;27;20051;-81
2024/03/15 07:25:49;;;;;;;14.47;7.03;;;;;;;;;;6312746;28;20051;-84
2024/03/15 07:28:51;;;;;;;12.43;7.15;;;;;;;;;;6310668;28;20040;-83
2024/03/15 07:31:54;;;;;;;14.00;7.47;;;;;;;;;;6310849;28;20067;-84
2024/03/15 07:34:56;;;;;;;11.73;6.60;;;;;;;;;;6314259;28;20178;-83
2024/03/15 07:37:58;;;;;;;13.85;7.55;;;;;;;;;;6291207;28;20597;-84
2024/03/15 07:41:00;;;;;;;12.60;7.50;;;;;;;;;;6307213;28;20043;-82
2024/03/15 07:44:03;;;;;;;11.45;7.30;;;;;;;;;;6310911;28;20040;-83
2024/03/15 07:47:06;;;;;;;33.55;17.30;;;;;;;;;;6309501;28;20666;-81
2024/03/15 07:50:11;;;;;;;14.02;8.07;;;;;;;;;;6304530;27;21098;-81
2024/03/15 07:53:15;;;;;;;20.83;7.85;;;;;;;;;;6292881;28;20498;-83
2024/03/15 07:56:17;;;;;;;13.80;7.07;;;;;;;;;;6303036;27;20048;-83
2024/03/15 07:59:20;;;;;;;12.20;8.07;;;;;;;;;;6295591;28;20068;-83
2024/03/15 08:02:24;;;;;;;;;;;;;;;;;;6281252;28;20108;-82
2024/03/15 08:05:27;;;;;;;15.18;10.82;;;;;;;;;;6276579;28;19924;-83
2024/03/15 08:08:29;;;;;;;13.77;8.45;;;;;;;;;;6271828;28;20048;-81
2024/03/15 08:11:33;;;;;;;15.82;8.27;;;;;;;;;;6289572;28;20040;-83
2024/03/15 08:14:37;;;;;;;13.55;7.45;;;;;;;;;;6303792;28;20044;-83
2024/03/15 08:17:40;;;;;;;9.95;6.05;;;;;;;;;;6265405;28;20041;-84
2024/03/15 08:20:47;;;;;;;;;;;;;;;;;;6274159;28;20721;-84
2024/03/15 08:23:48;;;;;;;9.20;5.25;;;;;;;;;;6264968;28;20309;-83
2024/03/15 08:26:50;;;;;;;9.25;5.07;;;;;;;;;;6305328;28;20044;-82
2024/03/15 08:29:54;;;;;;;10.40;5.38;;;;;;;;;;6298842;28;20086;-83
2024/03/15 08:32:56;;;;;;;7.78;4.22;;;;;;;;;;6306999;28;20059;-83
2024/03/15 08:36:00;;;;;;;6.22;4.18;;;;;;;;;;6305952;28;20101;-82
2024/03/15 08:39:13;;;;;;;9.68;4.18;;;;;;;;;;6287722;28;20036;-83
2024/03/15 08:42:15;;;;;;;5.97;3.90;;;;;;;;;;6298675;28;20044;-83
2024/03/15 08:45:18;;;;;;;5.22;4.00;;;;;;;;;;6312188;28;20050;-80
2024/03/15 08:48:19;;;;;;;6.15;3.45;;;;;;;;;;6300507;28;20085;-81
2024/03/15 08:51:23;;;;;;;10.13;4.30;;;;;;;;;;6269293;28;20049;-81
2024/03/15 08:54:24;;;;;;;9.02;3.70;;;;;;;;;;6299097;28;20125;-82
2024/03/15 08:57:26;;;;;;;7.68;3.65;;;;;;;;;;6291421;28;20040;-82
2024/03/15 09:00:28;;;;;;;5.15;3.33;;;;;;;;;;6295161;28;20472;-82
2024/03/15 09:03:33;;;;;;;7.15;3.50;;;;;;;;;;6303481;28;20203;-83
2024/03/15 09:06:39;;;;;;;6.97;3.25;;;;;;;;;;6308057;28;20139;-82
2024/03/15 09:09:43;;;;;;;5.95;3.58;;;;;;;;;;6276052;28;20152;-81
2024/03/15 09:12:46;;;;;;;5.78;3.13;;;;;;;;;;6305032;28;20077;-81
2024/03/15 09:15:48;;;;;;;4.25;3.00;;;;;;;;;;6307905;28;20048;-82
2024/03/15 09:18:52;;;;;;;4.47;2.88;;;;;;;;;;6304176;28;20125;-83
2024/03/15 09:21:59;;;;;;;7.20;2.75;;;;;;;;;;6308345;28;20120;-83
2024/03/15 09:25:01;;;;;;;4.97;2.75;;;;;;;;;;6295897;28;20048;-83
2024/03/15 09:28:05;;;;;;;4.38;2.28;;;;;;;;;;6304238;28;20040;-82
2024/03/15 09:31:08;;;;;;;3.17;2.38;;;;;;;;;;6305527;28;20040;-82
2024/03/15 09:34:32;;;;;;;4.30;2.45;;;;;;;;;;6313483;28;20371;-82
2024/03/15 09:37:38;;;;;;;6.32;2.60;;;;;;;;;;6306242;27;20049;-83
2024/03/15 09:40:39;;;;;;;5.68;2.30;;;;;;;;;;6299611;28;20497;-84
2024/03/15 09:43:41;;;;;;;4.40;2.60;;;;;;;;;;6308125;28;20052;-83
2024/03/15 09:46:43;;;;;;;7.47;2.70;;;;;;;;;;6306412;28;20040;-82
2024/03/15 09:49:47;;;;;;;4.65;2.40;;;;;;;;;;6289919;28;20126;-83
2024/03/15 09:52:50;;;;;;;4.97;2.67;;;;;;;;;;6308775;27;20040;-83
2024/03/15 09:55:54;;;;;;;5.03;2.60;;;;;;;;;;6309398;28;20698;-83
2024/03/15 09:58:57;;;;;;;4.93;2.25;;;;;;;;;;6289561;28;20044;-81
2024/03/15 10:01:59;;;;;;;4.90;2.70;;;;;;;;;;6295584;28;20059;-83
2024/03/15 10:05:01;;;;;;;3.05;2.60;;;;;;;;;;6315019;28;20071;-82
2024/03/15 10:08:05;;;;;;;4.10;2.45;;;;;;;;;;6310302;27;20056;-80
2024/03/15 10:11:07;;;;;;;4.70;2.30;;;;;;;;;;6304395;28;20047;-83
2024/03/15 10:14:09;;;;;;;4.13;2.20;;;;;;;;;;6298144;28;20047;-83
2024/03/15 10:17:11;;;;;;;6.63;2.40;;;;;;;;;;6306742;28;20044;-83
2024/03/15 10:20:18;;;;;;;4.13;2.63;;;;;;;;;;6293906;27;20105;-83
2024/03/15 10:23:19;;;;;;;5.32;2.30;;;;;;;;;;6292926;28;20534;-83
2024/03/15 10:26:21;;;;;;;4.80;2.38;;;;;;;;;;6315217;27;20048;-83
2024/03/15 10:29:23;;;;;;;3.35;2.22;;;;;;;;;;6292843;28;20075;-83
2024/03/15 10:32:25;;;;;;;3.10;2.20;;;;;;;;;;6317565;28;20056;-81
2024/03/15 10:35:27;;;;;;;3.22;2.53;;;;;;;;;;6328284;28;20040;-81
2024/03/15 10:38:29;;;;;;;3.13;2.60;;;;;;;;;;6324849;28;20057;-83
2024/03/15 10:41:32;;;;;;;5.82;3.28;;;;;;;;;;6310190;28;20048;-84
2024/03/15 10:44:34;;;;;;;4.18;2.53;;;;;;;;;;6312611;28;20055;-84
2024/03/15 10:47:36;;;;;;;3.13;2.47;;;;;;;;;;6326216;27;20591;-84
2024/03/15 10:50:40;;;;;;;5.18;2.70;;;;;;;;;;6312647;28;20048;-83
2024/03/15 10:53:43;;;;;;;4.25;2.40;;;;;;;;;;6308999;27;20150;-84
2024/03/15 10:56:47;;;;;;;3.25;2.22;;;;;;;;;;6303103;28;20071;-82
2024/03/15 10:59:48;;;;;;;3.80;2.55;;;;;;;;;;6321269;27;20048;-84
2024/03/15 11:02:54;;;;;;;4.32;2.85;;;;;;;;;;6301428;28;20035;-81
2024/03/15 11:06:00;;;;;;;3.33;2.78;;;;;;;;;;6333118;28;20063;-81
2024/03/15 11:09:14;;;;;;;4.03;2.92;;;;;;;;;;6304101;28;20059;-84
2024/03/15 11:12:21;;;;;;;5.88;3.25;;;;;;;;;;6285854;28;20048;-83
2024/03/15 11:15:23;;;;;;;6.07;3.60;;;;;;;;;;6309227;28;20060;-84
2024/03/15 11:18:37;;;;;;;5.88;2.90;;;;;;;;;;6297057;28;20234;-84
2024/03/15 11:21:39;;;;;;;6.93;3.50;;;;;;;;;;6309531;28;20052;-84
2024/03/15 11:24:42;;;;;;;5.85;3.08;;;;;;;;;;6296058;28;20120;-84
2024/03/15 11:27:57;;;;;;;5.07;3.07;;;;;;;;;;6303793;27;20098;-83
2024/03/15 11:31:00;;;;;;;5.13;3.33;;;;;;;;;;6303431;28;20044;-83
2024/03/15 11:34:02;;;;;;;3.13;2.60;;;;;;;;;;6288625;28;20058;-83
2024/03/15 11:37:06;;;;;;;3.75;2.78;;;;;;;;;;6311306;28;20051;-81
2024/03/15 11:40:10;;;;;;;3.38;2.70;;;;;;;;;;6305518;28;20055;-82
2024/03/15 11:43:14;;;;;;;4.60;2.70;;;;;;;;;;6279249;28;20041;-81
2024/03/15 11:46:16;;;;;;;4.90;2.92;;;;;;;;;;6316476;28;20053;-82
2024/03/15 11:49:17;;;;;;;5.13;3.00;;;;;;;;;;6302628;28;20052;-82
2024/03/15 11:52:19;;;;;;;5.57;2.53;;;;;;;;;;6303957;28;20110;-84
2024/03/15 11:55:21;;;;;;;3.53;2.63;;;;;;;;;;6309034;28;20055;-80
2024/03/15 11:58:24;;;;;;;5.97;2.95;;;;;;;;;;6327947;28;20048;-80
2024/03/15 12:01:25;;;;;;;3.50;2.28;;;;;;;;;;6315552;28;20043;-82
2024/03/15 12:04:32;;;;;;;3.83;2.67;;;;;;;;;;6301743;28;20036;-85
2024/03/15 12:07:35;;;;;;;3.92;2.60;;;;;;;;;;6290606;28;20064;-83
2024/03/15 12:10:37;;;;;;;4.10;2.65;;;;;;;;;;6261748;28;20041;-78
2024/03/15 12:13:39;;;;;;;3.35;2.70;;;;;;;;;;6285823;28;20044;-78
2024/03/15 12:16:44;;;;;;;5.15;2.20;;;;;;;;;;6304164;28;20043;-76
2024/03/15 12:19:46;;;;;;;3.47;2.08;;;;;;;;;;6300592;28;20107;-80
2024/03/15 12:22:47;;;;;;;2.30;1.92;;;;;;;;;;6301156;28;20040;-83
2024/03/15 12:25:51;;;;;;;4.88;2.40;;;;;;;;;;6297491;28;20048;-82
2024/03/15 12:28:52;;;;;;;2.72;1.67;;;;;;;;;;6301445;28;20127;-85
2024/03/15 12:31:54;;;;;;;2.63;1.90;;;;;;;;;;6298329;28;20078;-82
2024/03/15 12:34:56;;;;;;;1.73;1.60;;;;;;;;;;6282368;28;20522;-83
2024/03/15 12:37:58;;;;;;;1.80;1.50;;;;;;;;;;6306073;28;20048;-83
2024/03/15 12:41:00;;;;;;;2.25;1.75;;;;;;;;;;6292666;28;20055;-83
2024/03/15 12:44:02;;;;;;;2.92;1.63;;;;;;;;;;6312463;27;20043;-84
2024/03/15 12:47:04;;;;;;;2.63;1.88;;;;;;;;;;6307376;28;20052;-81
2024/03/15 12:50:17;;;;;;;2.20;1.77;;;;;;;;;;6286586;28;20052;-82
2024/03/15 12:53:19;;;;;;;2.72;1.70;;;;;;;;;;6276777;28;20044;-83
2024/03/15 12:56:22;;;;;;;2.60;1.75;;;;;;;;;;6293852;28;20048;-83
2024/03/15 12:59:24;;;;;;;2.78;1.73;;;;;;;;;;6296905;28;20051;-83
2024/03/15 13:02:26;;;;;;;1.60;1.50;;;;;;;;;;6309436;28;20044;-84
2024/03/15 13:05:27;;;;;;;1.50;1.20;;;;;;;;;;6306817;28;20044;-83
2024/03/15 13:08:31;;;;;;;4.05;1.52;;;;;;;;;;6290120;28;20483;-82
2024/03/15 13:11:32;;;;;;;1.92;1.30;;;;;;;;;;6294217;28;20044;-84
2024/03/15 13:14:34;;;;;;;1.60;1.33;;;;;;;;;;6277956;28;20044;-82
2024/03/15 13:17:36;;;;;;;4.45;1.88;;;;;;;;;;6301408;28;20422;-83
2024/03/15 13:20:38;;;;;;;1.88;1.30;;;;;;;;;;6315026;28;20114;-83
2024/03/15 13:23:39;;;;;;;1.75;1.30;;;;;;;;;;6343815;28;20032;-81
2024/03/15 13:26:41;;;;;;;1.80;1.40;;;;;;;;;;6336145;28;20062;-81
2024/03/15 13:29:43;;;;;;;1.27;1.13;;;;;;;;;;6308862;28;20044;-83
2024/03/15 13:32:45;;;;;;;1.30;1.20;;;;;;;;;;6311848;28;20498;-84
2024/03/15 13:35:47;;;;;;;2.10;1.33;;;;;;;;;;6306732;28;20039;-84
2024/03/15 13:38:48;;;;;;;1.98;1.50;;;;;;;;;;6302649;28;20047;-84
2024/03/15 13:41:51;;;;;;;1.38;1.10;;;;;;;;;;6311363;28;20049;-84
2024/03/15 13:44:55;;;;;;;1.73;1.20;;;;;;;;;;6288200;28;20118;-83
2024/03/15 13:47:59;;;;;;;2.28;1.25;;;;;;;;;;6310628;28;20043;-84
2024/03/15 13:51:02;;;;;;;1.52;1.30;;;;;;;;;;6302305;28;20043;-85
2024/03/15 13:54:04;;;;;;;2.65;1.63;;;;;;;;;;6307962;28;20044;-84
2024/03/15 13:57:10;;;;;;;1.40;1.30;;;;;;;;;;6312067;28;20044;-86
2024/03/15 14:00:32;;;;;;;1.90;1.40;;;;;;;;;;6322877;27;20059;-82
2024/03/15 14:03:35;;;;;;;;;;;;;;;;;;6299699;28;20071;-81
2024/03/15 14:06:41;;;;;;;2.78;1.85;;;;;;;;;;6320405;28;20019;-81
2024/03/15 14:09:43;;;;;;;2.28;1.10;;;;;;;;;;6303090;28;20044;-81
2024/03/15 14:12:45;;;;;;;1.08;0.98;;;;;;;;;;6279918;28;20048;-85
2024/03/15 14:15:51;;;;;;;1.95;1.20;;;;;;;;;;6297611;28;20048;-83
2024/03/15 14:18:54;;;;;;;1.63;1.30;;;;;;;;;;6304777;28;20048;-83
2024/03/15 14:22:01;;;;;;;3.50;1.27;;;;;;;;;;6311419;28;20049;-84
2024/03/15 14:25:04;;;;;;;1.98;1.25;;;;;;;;;;6292427;28;20139;-84
2024/03/15 14:28:07;;;;;;;1.70;1.50;;;;;;;;;;6280480;28;20051;-83
2024/03/15 14:31:10;;;;;;;1.52;1.20;;;;;;;;;;6272054;28;20712;-85
2024/03/15 14:34:12;;;;;;;3.85;1.60;;;;;;;;;;6275273;28;20052;-83
2024/03/15 14:37:15;;;;;;;4.22;1.67;;;;;;;;;;6269370;28;20056;-83
2024/03/15 14:40:21;;;;;;;1.70;1.20;;;;;;;;;;6290150;28;20055;-81
2024/03/15 14:43:23;;;;;;;2.45;1.50;;;;;;;;;;6298911;28;20078;-84
2024/03/15 14:46:25;;;;;;;2.00;1.20;;;;;;;;;;6296379;28;20137;-81
2024/03/15 14:49:27;;;;;;;2.88;1.23;;;;;;;;;;6297264;28;20491;-83
2024/03/15 14:52:29;;;;;;;2.47;1.83;;;;;;;;;;6301652;28;20028;-80
2024/03/15 14:55:34;;;;;;;1.92;1.80;;;;;;;;;;6340976;27;20088;-81
2024/03/15 14:58:36;;;;;;;1.90;1.30;;;;;;;;;;6337544;28;20027;-83
2024/03/15 15:01:37;;;;;;;4.00;1.73;;;;;;;;;;6324812;28;20033;-82
2024/03/15 15:04:40;;;;;;;1.60;1.40;;;;;;;;;;6325044;28;20040;-81
2024/03/15 15:07:42;;;;;;;1.55;1.38;;;;;;;;;;6287885;28;20138;-83
2024/03/15 15:10:43;;;;;;;1.10;0.95;;;;;;;;;;6269487;28;20041;-83
2024/03/15 15:13:45;;;;;;;1.98;1.33;;;;;;;;;;6282036;28;20037;-82
2024/03/15 15:16:47;;;;;;;1.48;1.13;;;;;;;;;;6303150;28;20047;-83
2024/03/15 15:19:49;;;;;;;2.25;1.05;;;;;;;;;;6297981;28;20048;-82
2024/03/15 15:22:50;;;;;;;2.03;1.20;;;;;;;;;;6303427;28;20051;-83
2024/03/15 15:25:52;;;;;;;2.15;1.25;;;;;;;;;;6297227;27;20051;-83
2024/03/15 15:28:54;;;;;;;1.90;1.63;;;;;;;;;;6280294;28;20055;-83
2024/03/15 15:31:57;;;;;;;1.92;1.30;;;;;;;;;;6298279;27;20485;-82
2024/03/15 15:34:59;;;;;;;1.13;0.98;;;;;;;;;;6306936;28;20421;-85
2024/03/15 15:38:01;;;;;;;1.60;0.90;;;;;;;;;;6301243;28;20091;-84
2024/03/15 15:41:04;;;;;;;1.70;1.35;;;;;;;;;;6288898;28;20055;-84
2024/03/15 15:44:06;;;;;;;1.40;0.95;;;;;;;;;;6300126;28;20119;-84
2024/03/15 15:47:08;;;;;;;1.98;0.98;;;;;;;;;;6301285;28;20059;-82
2024/03/15 15:50:17;;;;;;;2.78;1.10;;;;;;;;;;6309740;28;20040;-83
2024/03/15 15:53:19;;;;;;;1.73;1.17;;;;;;;;;;6326803;28;20049;-85
2024/03/15 15:56:22;;;;;;;2.95;1.20;;;;;;;;;;6285912;28;20052;-83
2024/03/15 15:59:24;;;;;;;;;;;;;;;;;;6299426;28;20144;-82
2024/03/15 16:02:26;;;;;;;2.38;1.27;;;;;;;;;;6310404;28;19936;-83
2024/03/15 16:05:28;;;;;;;1.58;1.02;;;;;;;;;;6325017;28;20048;-81
2024/03/15 16:08:30;;;;;;;3.25;1.08;;;;;;;;;;6295924;28;20509;-84
2024/03/15 16:11:32;;;;;;;1.52;1.30;;;;;;;;;;6288023;28;20044;-84
2024/03/15 16:14:34;;;;;;;1.50;1.10;;;;;;;;;;6304789;28;20039;-84
2024/03/15 16:17:36;;;;;;;1.63;1.05;;;;;;;;;;6286373;28;20051;-82
2024/03/15 16:20:37;;;;;;;2.78;1.50;;;;;;;;;;6303673;28;20048;-81
2024/03/15 16:23:40;;;;;;;4.35;1.70;;;;;;;;;;6302600;28;20050;-80
2024/03/15 16:26:42;;;;;;;;;;;;;;;;;;6328119;28;20062;-79
2024/03/15 16:29:44;;;;;;;1.42;1.33;;;;;;;;;;6300058;28;19934;-82
2024/03/15 16:32:46;;;;;;;6.95;1.38;;;;;;;;;;6264666;28;21418;-82
2024/03/15 16:35:48;;;;;;;3.17;1.20;;;;;;;;;;6252931;28;21643;-81
2024/03/15 16:38:50;;;;;;;1.65;1.00;;;;;;;;;;6301662;28;20766;-83
2024/03/15 16:41:54;;;;;;;2.33;0.95;;;;;;;;;;6306978;28;20036;-81
2024/03/15 16:44:57;;;;;;;2.15;1.10;;;;;;;;;;6304352;28;20043;-82
2024/03/15 16:47:59;;;;;;;2.28;1.20;;;;;;;;;;6297959;28;20040;-80
2024/03/15 16:51:01;;;;;;;0.95;0.88;;;;;;;;;;6305567;28;20051;-83
2024/03/15 16:54:03;;;;;;;3.38;1.38;;;;;;;;;;6299314;28;20041;-83
2024/03/15 16:57:05;;;;;;;1.30;1.08;;;;;;;;;;6300194;28;20037;-83
2024/03/15 17:00:16;;;;;;;9.68;2.13;;;;;;;;;;6303878;28;20052;-81
2024/03/15 17:03:18;;;;;;;5.43;1.65;;;;;;;;;;6294818;28;20557;-84
2024/03/15 17:06:19;;;;;;;4.13;1.85;;;;;;;;;;6298728;28;20060;-84
2024/03/15 17:09:24;;;;;;;3.53;1.80;;;;;;;;;;6300159;28;20048;-79
2024/03/15 17:12:26;;;;;;;3.00;1.60;;;;;;;;;;6291750;28;20130;-82
2024/03/15 17:15:28;;;;;;;3.95;1.50;;;;;;;;;;6308014;27;20488;-83
2024/03/15 17:18:30;;;;;;;4.55;1.70;;;;;;;;;;6315019;28;20044;-80
2024/03/15 17:21:33;;;;;;;4.72;1.42;;;;;;;;;;6309581;28;20086;-82
2024/03/15 17:24:37;;;;;;;1.85;1.20;;;;;;;;;;6294205;28;20138;-81
2024/03/15 17:27:40;;;;;;;1.85;1.55;;;;;;;;;;6271808;28;20045;-81
2024/03/15 17:30:41;;;;;;;2.28;1.20;;;;;;;;;;6289445;28;20171;-82
2024/03/15 17:33:44;;;;;;;3.25;1.25;;;;;;;;;;6289279;28;20040;-83
2024/03/15 17:36:46;;;;;;;2.85;1.23;;;;;;;;;;6284536;28;20532;-81
2024/03/15 17:39:49;;;;;;;3.55;1.20;;;;;;;;;;6326932;27;20032;-80
2024/03/15 17:42:50;;;;;;;1.53;1.03;;;;;;;;;;6303783;27;20036;-83
2024/03/15 17:45:52;;;;;;;1.40;1.10;;;;;;;;;;6306100;28;20456;-84
2024/03/15 17:48:55;;;;;;;4.88;2.20;;;;;;;;;;6299148;27;20044;-83
2024/03/15 17:51:57;;;;;;;8.50;3.40;;;;;;;;;;6287595;28;20099;-84
2024/03/15 17:54:59;;;;;;;2.38;1.40;;;;;;;;;;6304531;28;20044;-84
2024/03/15 17:58:01;;;;;;;2.38;1.25;;;;;;;;;;6301783;27;20047;-83
2024/03/15 18:01:03;;;;;;;1.92;1.40;;;;;;;;;;6317553;27;20059;-82
2024/03/15 18:04:05;;;;;;;3.17;1.50;;;;;;;;;;6298087;27;20085;-82
2024/03/15 18:07:06;;;;;;;1.77;1.40;;;;;;;;;;6302276;28;20047;-85
2024/03/15 18:10:12;;;;;;;4.43;2.42;;;;;;;;;;6300089;28;20399;-84
2024/03/15 18:13:15;;;;;;;3.60;1.90;;;;;;;;;;6309612;27;20052;-85